sensor_id;sensor_type;location;lat;lon;timestamp;temperature;humidity
69335;SHT31;56477;52.742;15.242;2022-10-31T00:02:13;11.39;95.08
69335;SHT31;56477;52.742;15.242;2022-10-31T00:04:38;11.54;97.21
69335;SHT31;56477;52.742;15.242;2022-10-31T00:07:04;11.66;97.03
69335;SHT31;56477;52.742;15.242;2022-10-31T00:09:30;11.62;96.47
69335;SHT31;56477;52.742;15.242;2022-10-31T00:11:56;11.69;97.18
69335;SHT31;56477;52.742;15.242;2022-10-31T00:14:22;11.79;97.84
69335;SHT31;56477;52.742;15.242;2022-10-31T00:16:48;11.85;97.70
69335;SHT31;56477;52.742;15.242;2022-10-31T00:19:14;11.97;98.40
69335;SHT31;56477;52.742;15.242;2022-10-31T00:21:40;11.81;97.23
69335;SHT31;56477;52.742;15.242;2022-10-31T00:24:06;11.54;96.40
69335;SHT31;56477;52.742;15.242;2022-10-31T00:26:32;11.30;95.19
69335;SHT31;56477;52.742;15.242;2022-10-31T00:28:59;11.03;94.97
69335;SHT31;56477;52.742;15.242;2022-10-31T00:31:25;10.86;95.26
69335;SHT31;56477;52.742;15.242;2022-10-31T00:33:51;10.80;95.77
69335;SHT31;56477;52.742;15.242;2022-10-31T00:36:19;10.80;96.20
69335;SHT31;56477;52.742;15.242;2022-10-31T00:38:47;10.80;96.37
69335;SHT31;56477;52.742;15.242;2022-10-31T00:41:15;10.77;96.20
69335;SHT31;56477;52.742;15.242;2022-10-31T00:43:42;10.72;96.10
69335;SHT31;56477;52.742;15.242;2022-10-31T00:46:09;10.66;95.96
69335;SHT31;56477;52.742;15.242;2022-10-31T00:48:35;10.53;95.63
69335;SHT31;56477;52.742;15.242;2022-10-31T00:51:01;10.46;95.51
69335;SHT31;56477;52.742;15.242;2022-10-31T00:53:27;10.42;95.83
69335;SHT31;56477;52.742;15.242;2022-10-31T00:55:53;10.52;96.38
69335;SHT31;56477;52.742;15.242;2022-10-31T00:58:19;10.55;96.32
69335;SHT31;56477;52.742;15.242;2022-10-31T01:00:47;10.48;95.70
69335;SHT31;56477;52.742;15.242;2022-10-31T01:03:25;10.29;95.00
69335;SHT31;56477;52.742;15.242;2022-10-31T01:06:21;10.19;95.52
69335;SHT31;56477;52.742;15.242;2022-10-31T01:08:47;10.14;95.57
69335;SHT31;56477;52.742;15.242;2022-10-31T01:11:21;10.14;95.87
69335;SHT31;56477;52.742;15.242;2022-10-31T01:13:50;10.11;95.98
69335;SHT31;56477;52.742;15.242;2022-10-31T01:16:19;10.11;95.99
69335;SHT31;56477;52.742;15.242;2022-10-31T01:18:46;9.95;95.29
69335;SHT31;56477;52.742;15.242;2022-10-31T01:21:17;9.80;95.23
69335;SHT31;56477;52.742;15.242;2022-10-31T01:23:44;9.77;96.27
69335;SHT31;56477;52.742;15.242;2022-10-31T01:26:15;9.86;96.87
69335;SHT31;56477;52.742;15.242;2022-10-31T01:31:13;10.00;97.32
69335;SHT31;56477;52.742;15.242;2022-10-31T01:33:40;10.04;97.13
69335;SHT31;56477;52.742;15.242;2022-10-31T01:36:16;10.01;96.97
69335;SHT31;56477;52.742;15.242;2022-10-31T01:38:43;9.94;96.48
69335;SHT31;56477;52.742;15.242;2022-10-31T01:41:11;9.86;96.24
69335;SHT31;56477;52.742;15.242;2022-10-31T01:46:14;9.66;95.71
69335;SHT31;56477;52.742;15.242;2022-10-31T01:48:41;9.53;95.25
69335;SHT31;56477;52.742;15.242;2022-10-31T01:51:08;9.47;95.59
69335;SHT31;56477;52.742;15.242;2022-10-31T01:53:36;9.38;95.48
69335;SHT31;56477;52.742;15.242;2022-10-31T01:56:02;9.40;95.92
69335;SHT31;56477;52.742;15.242;2022-10-31T01:58:31;9.33;95.80
69335;SHT31;56477;52.742;15.242;2022-10-31T02:00:59;9.29;95.89
69335;SHT31;56477;52.742;15.242;2022-10-31T02:03:26;9.25;96.17
69335;SHT31;56477;52.742;15.242;2022-10-31T02:05:54;9.28;96.43
69335;SHT31;56477;52.742;15.242;2022-10-31T02:08:31;9.30;96.57
69335;SHT31;56477;52.742;15.242;2022-10-31T02:11:00;9.33;96.69
69335;SHT31;56477;52.742;15.242;2022-10-31T02:13:28;9.39;96.70
69335;SHT31;56477;52.742;15.242;2022-10-31T02:15:57;9.35;96.32
69335;SHT31;56477;52.742;15.242;2022-10-31T02:18:25;9.33;96.27
69335;SHT31;56477;52.742;15.242;2022-10-31T02:30:07;9.11;96.52
69335;SHT31;56477;52.742;15.242;2022-10-31T02:32:41;9.04;96.74
69335;SHT31;56477;52.742;15.242;2022-10-31T02:40:27;9.01;96.91
69335;SHT31;56477;52.742;15.242;2022-10-31T02:43:54;9.00;96.94
69335;SHT31;56477;52.742;15.242;2022-10-31T02:46:01;9.01;96.90
69335;SHT31;56477;52.742;15.242;2022-10-31T02:48:29;9.00;96.63
69335;SHT31;56477;52.742;15.242;2022-10-31T02:50:59;8.98;96.57
69335;SHT31;56477;52.742;15.242;2022-10-31T02:53:26;8.91;96.37
69335;SHT31;56477;52.742;15.242;2022-10-31T02:56:16;8.84;96.57
69335;SHT31;56477;52.742;15.242;2022-10-31T02:58:59;8.78;96.44
69335;SHT31;56477;52.742;15.242;2022-10-31T03:06:52;8.67;96.43
69335;SHT31;56477;52.742;15.242;2022-10-31T03:09:28;8.71;96.51
69335;SHT31;56477;52.742;15.242;2022-10-31T03:12:07;8.70;96.58
69335;SHT31;56477;52.742;15.242;2022-10-31T03:14:41;8.71;96.51
69335;SHT31;56477;52.742;15.242;2022-10-31T03:17:14;8.78;96.92
69335;SHT31;56477;52.742;15.242;2022-10-31T03:19:47;8.77;96.80
69335;SHT31;56477;52.742;15.242;2022-10-31T03:22:21;8.80;96.74
69335;SHT31;56477;52.742;15.242;2022-10-31T03:24:48;8.77;96.70
69335;SHT31;56477;52.742;15.242;2022-10-31T03:27:21;8.75;96.78
69335;SHT31;56477;52.742;15.242;2022-10-31T03:29:50;8.78;96.98
69335;SHT31;56477;52.742;15.242;2022-10-31T03:32:28;8.87;97.48
69335;SHT31;56477;52.742;15.242;2022-10-31T03:34:59;8.95;97.54
69335;SHT31;56477;52.742;15.242;2022-10-31T03:37:27;8.98;97.22
69335;SHT31;56477;52.742;15.242;2022-10-31T03:39:55;8.98;97.20
69335;SHT31;56477;52.742;15.242;2022-10-31T03:42:24;9.00;97.11
69335;SHT31;56477;52.742;15.242;2022-10-31T03:47:22;9.01;97.47
69335;SHT31;56477;52.742;15.242;2022-10-31T03:49:48;8.92;96.80
69335;SHT31;56477;52.742;15.242;2022-10-31T03:55:21;8.70;96.84
69335;SHT31;56477;52.742;15.242;2022-10-31T03:58:12;8.77;97.79
69335;SHT31;56477;52.742;15.242;2022-10-31T04:00:44;8.77;97.38
69335;SHT31;56477;52.742;15.242;2022-10-31T04:03:15;8.80;97.27
69335;SHT31;56477;52.742;15.242;2022-10-31T04:05:44;8.80;97.41
69335;SHT31;56477;52.742;15.242;2022-10-31T04:08:18;8.80;97.28
69335;SHT31;56477;52.742;15.242;2022-10-31T04:10:48;8.77;96.97
69335;SHT31;56477;52.742;15.242;2022-10-31T04:13:22;8.81;96.90
69335;SHT31;56477;52.742;15.242;2022-10-31T04:15:52;8.84;97.90
69335;SHT31;56477;52.742;15.242;2022-10-31T04:18:19;8.88;97.60
69335;SHT31;56477;52.742;15.242;2022-10-31T04:20:46;8.75;96.83
69335;SHT31;56477;52.742;15.242;2022-10-31T04:23:22;8.61;96.99
69335;SHT31;56477;52.742;15.242;2022-10-31T04:25:49;8.57;97.23
69335;SHT31;56477;52.742;15.242;2022-10-31T04:28:15;8.57;97.12
69335;SHT31;56477;52.742;15.242;2022-10-31T04:30:41;8.49;96.55
69335;SHT31;56477;52.742;15.242;2022-10-31T04:33:07;8.44;96.84
69335;SHT31;56477;52.742;15.242;2022-10-31T04:35:33;8.49;97.10
69335;SHT31;56477;52.742;15.242;2022-10-31T04:37:59;8.42;96.74
69335;SHT31;56477;52.742;15.242;2022-10-31T04:40:25;8.36;96.85
69335;SHT31;56477;52.742;15.242;2022-10-31T04:42:51;8.28;96.40
69335;SHT31;56477;52.742;15.242;2022-10-31T04:45:17;8.21;96.71
69335;SHT31;56477;52.742;15.242;2022-10-31T04:47:43;8.23;97.43
69335;SHT31;56477;52.742;15.242;2022-10-31T04:50:09;8.26;97.21
69335;SHT31;56477;52.742;15.242;2022-10-31T04:52:39;8.22;97.09
69335;SHT31;56477;52.742;15.242;2022-10-31T04:55:05;8.17;96.94
69335;SHT31;56477;52.742;15.242;2022-10-31T04:57:31;8.14;96.73
69335;SHT31;56477;52.742;15.242;2022-10-31T04:59:57;8.09;96.66
69335;SHT31;56477;52.742;15.242;2022-10-31T05:02:23;8.05;96.69
69335;SHT31;56477;52.742;15.242;2022-10-31T05:04:49;7.96;96.74
69335;SHT31;56477;52.742;15.242;2022-10-31T05:07:15;7.89;96.90
69335;SHT31;56477;52.742;15.242;2022-10-31T05:09:41;7.91;97.44
69335;SHT31;56477;52.742;15.242;2022-10-31T05:12:07;7.99;97.53
69335;SHT31;56477;52.742;15.242;2022-10-31T05:14:34;8.03;97.87
69335;SHT31;56477;52.742;15.242;2022-10-31T05:17:00;8.05;97.75
69335;SHT31;56477;52.742;15.242;2022-10-31T05:19:26;8.09;98.04
69335;SHT31;56477;52.742;15.242;2022-10-31T05:21:52;8.22;98.62
69335;SHT31;56477;52.742;15.242;2022-10-31T05:24:18;8.16;98.21
69335;SHT31;56477;52.742;15.242;2022-10-31T05:26:48;8.16;98.09
69335;SHT31;56477;52.742;15.242;2022-10-31T05:29:14;8.13;98.00
69335;SHT31;56477;52.742;15.242;2022-10-31T05:31:40;8.12;98.06
69335;SHT31;56477;52.742;15.242;2022-10-31T05:34:06;8.07;98.17
69335;SHT31;56477;52.742;15.242;2022-10-31T05:36:32;8.06;98.43
69335;SHT31;56477;52.742;15.242;2022-10-31T05:38:58;8.07;98.44
69335;SHT31;56477;52.742;15.242;2022-10-31T05:41:24;8.09;98.63
69335;SHT31;56477;52.742;15.242;2022-10-31T05:43:50;8.13;98.80
69335;SHT31;56477;52.742;15.242;2022-10-31T05:46:16;8.14;99.05
69335;SHT31;56477;52.742;15.242;2022-10-31T05:48:42;8.22;98.95
69335;SHT31;56477;52.742;15.242;2022-10-31T05:51:08;8.26;99.08
69335;SHT31;56477;52.742;15.242;2022-10-31T05:53:35;8.26;99.31
69335;SHT31;56477;52.742;15.242;2022-10-31T05:56:00;8.28;99.23
69335;SHT31;56477;52.742;15.242;2022-10-31T05:58:27;8.28;99.19
69335;SHT31;56477;52.742;15.242;2022-10-31T06:00:53;8.32;99.25
69335;SHT31;56477;52.742;15.242;2022-10-31T06:03:19;8.34;99.47
69335;SHT31;56477;52.742;15.242;2022-10-31T06:05:45;8.50;99.67
69335;SHT31;56477;52.742;15.242;2022-10-31T06:08:11;8.60;99.78
69335;SHT31;56477;52.742;15.242;2022-10-31T06:10:37;8.63;99.87
69335;SHT31;56477;52.742;15.242;2022-10-31T06:13:03;8.75;99.93
69335;SHT31;56477;52.742;15.242;2022-10-31T06:15:29;8.87;99.99
69335;SHT31;56477;52.742;15.242;2022-10-31T06:18:00;8.97;99.99
69335;SHT31;56477;52.742;15.242;2022-10-31T06:20:26;9.01;99.99
69335;SHT31;56477;52.742;15.242;2022-10-31T06:22:52;9.02;99.99
69335;SHT31;56477;52.742;15.242;2022-10-31T06:25:18;9.02;99.99
69335;SHT31;56477;52.742;15.242;2022-10-31T06:27:44;9.04;99.99
69335;SHT31;56477;52.742;15.242;2022-10-31T06:30:10;8.97;99.81
69335;SHT31;56477;52.742;15.242;2022-10-31T06:32:37;8.91;99.58
69335;SHT31;56477;52.742;15.242;2022-10-31T06:35:03;8.85;99.46
69335;SHT31;56477;52.742;15.242;2022-10-31T06:37:31;8.85;99.57
69335;SHT31;56477;52.742;15.242;2022-10-31T06:39:57;8.85;99.50
69335;SHT31;56477;52.742;15.242;2022-10-31T06:42:23;8.87;99.44
69335;SHT31;56477;52.742;15.242;2022-10-31T06:44:49;8.88;99.42
69335;SHT31;56477;52.742;15.242;2022-10-31T06:47:15;8.92;99.49
69335;SHT31;56477;52.742;15.242;2022-10-31T06:49:41;9.02;99.62
69335;SHT31;56477;52.742;15.242;2022-10-31T06:52:07;9.05;99.54
69335;SHT31;56477;52.742;15.242;2022-10-31T06:54:33;9.21;99.62
69335;SHT31;56477;52.742;15.242;2022-10-31T06:56:59;9.32;99.59
69335;SHT31;56477;52.742;15.242;2022-10-31T06:59:25;9.39;99.48
69335;SHT31;56477;52.742;15.242;2022-10-31T07:01:51;9.35;98.85
69335;SHT31;56477;52.742;15.242;2022-10-31T07:04:16;9.38;99.04
69335;SHT31;56477;52.742;15.242;2022-10-31T07:06:43;9.36;98.84
69335;SHT31;56477;52.742;15.242;2022-10-31T07:09:08;9.30;98.40
69335;SHT31;56477;52.742;15.242;2022-10-31T07:11:34;9.15;97.62
69335;SHT31;56477;52.742;15.242;2022-10-31T07:14:00;9.08;97.79
69335;SHT31;56477;52.742;15.242;2022-10-31T07:16:27;9.12;97.90
69335;SHT31;56477;52.742;15.242;2022-10-31T07:18:52;9.33;98.15
69335;SHT31;56477;52.742;15.242;2022-10-31T07:21:19;9.50;97.95
69335;SHT31;56477;52.742;15.242;2022-10-31T07:23:47;9.70;97.44
69335;SHT31;56477;52.742;15.242;2022-10-31T07:26:14;9.80;97.06
69335;SHT31;56477;52.742;15.242;2022-10-31T07:28:40;9.88;96.75
69335;SHT31;56477;52.742;15.242;2022-10-31T07:31:06;9.97;96.76
69335;SHT31;56477;52.742;15.242;2022-10-31T07:33:32;9.94;96.29
69335;SHT31;56477;52.742;15.242;2022-10-31T07:35:58;10.07;96.36
69335;SHT31;56477;52.742;15.242;2022-10-31T07:38:25;10.00;94.93
69335;SHT31;56477;52.742;15.242;2022-10-31T07:40:52;10.09;95.56
69335;SHT31;56477;52.742;15.242;2022-10-31T07:43:21;10.05;94.69
69335;SHT31;56477;52.742;15.242;2022-10-31T07:45:51;10.05;94.94
69335;SHT31;56477;52.742;15.242;2022-10-31T07:48:17;9.98;94.20
69335;SHT31;56477;52.742;15.242;2022-10-31T07:50:44;9.95;95.06
69335;SHT31;56477;52.742;15.242;2022-10-31T07:53:11;10.04;94.64
69335;SHT31;56477;52.742;15.242;2022-10-31T07:55:38;10.11;94.62
69335;SHT31;56477;52.742;15.242;2022-10-31T07:58:10;10.21;94.45
69335;SHT31;56477;52.742;15.242;2022-10-31T08:00:38;10.14;94.36
69335;SHT31;56477;52.742;15.242;2022-10-31T08:03:12;10.05;94.72
69335;SHT31;56477;52.742;15.242;2022-10-31T08:05:39;10.11;94.59
69335;SHT31;56477;52.742;15.242;2022-10-31T08:08:07;10.15;94.82
69335;SHT31;56477;52.742;15.242;2022-10-31T08:10:34;10.14;94.60
69335;SHT31;56477;52.742;15.242;2022-10-31T08:13:06;9.94;94.39
69335;SHT31;56477;52.742;15.242;2022-10-31T08:15:32;10.08;95.20
69335;SHT31;56477;52.742;15.242;2022-10-31T08:18:02;10.09;94.99
69335;SHT31;56477;52.742;15.242;2022-10-31T08:20:29;10.09;94.70
69335;SHT31;56477;52.742;15.242;2022-10-31T08:23:00;10.04;94.43
69335;SHT31;56477;52.742;15.242;2022-10-31T08:25:29;10.14;94.55
69335;SHT31;56477;52.742;15.242;2022-10-31T08:27:56;10.12;94.58
69335;SHT31;56477;52.742;15.242;2022-10-31T08:30:26;10.08;94.62
69335;SHT31;56477;52.742;15.242;2022-10-31T08:33:13;10.29;94.87
69335;SHT31;56477;52.742;15.242;2022-10-31T08:35:40;10.41;94.50
69335;SHT31;56477;52.742;15.242;2022-10-31T08:38:08;10.63;94.34
69335;SHT31;56477;52.742;15.242;2022-10-31T08:40:35;10.92;94.32
69335;SHT31;56477;52.742;15.242;2022-10-31T08:43:06;11.28;93.57
69335;SHT31;56477;52.742;15.242;2022-10-31T08:45:34;11.50;92.68
69335;SHT31;56477;52.742;15.242;2022-10-31T08:48:03;11.48;92.19
69335;SHT31;56477;52.742;15.242;2022-10-31T08:50:30;11.59;92.24
69335;SHT31;56477;52.742;15.242;2022-10-31T08:53:14;11.58;91.53
69335;SHT31;56477;52.742;15.242;2022-10-31T08:55:41;11.64;91.03
69335;SHT31;56477;52.742;15.242;2022-10-31T08:58:11;11.75;90.46
69335;SHT31;56477;52.742;15.242;2022-10-31T09:00:37;11.41;91.04
69335;SHT31;56477;52.742;15.242;2022-10-31T09:03:05;11.37;91.83
69335;SHT31;56477;52.742;15.242;2022-10-31T09:05:32;11.37;92.28
69335;SHT31;56477;52.742;15.242;2022-10-31T09:08:00;11.31;92.18
69335;SHT31;56477;52.742;15.242;2022-10-31T09:10:27;11.30;91.72
69335;SHT31;56477;52.742;15.242;2022-10-31T09:12:57;11.07;91.89
69335;SHT31;56477;52.742;15.242;2022-10-31T09:15:25;11.04;92.75
69335;SHT31;56477;52.742;15.242;2022-10-31T09:17:51;11.06;93.25
69335;SHT31;56477;52.742;15.242;2022-10-31T09:20:17;11.07;93.59
69335;SHT31;56477;52.742;15.242;2022-10-31T09:22:43;11.08;93.55
69335;SHT31;56477;52.742;15.242;2022-10-31T09:25:09;11.16;93.35
69335;SHT31;56477;52.742;15.242;2022-10-31T09:27:35;11.16;93.83
69335;SHT31;56477;52.742;15.242;2022-10-31T09:30:02;11.14;94.05
69335;SHT31;56477;52.742;15.242;2022-10-31T09:32:28;11.34;94.50
69335;SHT31;56477;52.742;15.242;2022-10-31T09:34:54;11.38;94.13
69335;SHT31;56477;52.742;15.242;2022-10-31T09:37:20;11.59;94.00
69335;SHT31;56477;52.742;15.242;2022-10-31T09:39:46;11.75;93.99
69335;SHT31;56477;52.742;15.242;2022-10-31T09:42:43;11.82;93.26
69335;SHT31;56477;52.742;15.242;2022-10-31T09:45:16;11.95;93.06
69335;SHT31;56477;52.742;15.242;2022-10-31T09:50:58;12.00;92.78
69335;SHT31;56477;52.742;15.242;2022-10-31T09:53:37;12.02;92.17
69335;SHT31;56477;52.742;15.242;2022-10-31T09:56:11;12.22;91.85
69335;SHT31;56477;52.742;15.242;2022-10-31T09:58:43;12.31;91.50
69335;SHT31;56477;52.742;15.242;2022-10-31T10:01:19;12.37;91.23
69335;SHT31;56477;52.742;15.242;2022-10-31T10:03:51;12.38;92.24
69335;SHT31;56477;52.742;15.242;2022-10-31T10:06:27;12.16;92.54
69335;SHT31;56477;52.742;15.242;2022-10-31T10:08:55;12.19;93.27
69335;SHT31;56477;52.742;15.242;2022-10-31T10:11:31;12.31;93.28
69335;SHT31;56477;52.742;15.242;2022-10-31T10:24:52;12.80;92.29
69335;SHT31;56477;52.742;15.242;2022-10-31T10:30:20;12.81;91.82
69335;SHT31;56477;52.742;15.242;2022-10-31T10:33:02;13.15;91.26
69335;SHT31;56477;52.742;15.242;2022-10-31T10:35:39;12.78;92.13
69335;SHT31;56477;52.742;15.242;2022-10-31T10:41:16;12.93;92.39
69335;SHT31;56477;52.742;15.242;2022-10-31T10:43:43;13.12;92.44
69335;SHT31;56477;52.742;15.242;2022-10-31T10:52:17;13.22;92.40
69335;SHT31;56477;52.742;15.242;2022-10-31T11:02:56;12.93;93.51
69335;SHT31;56477;52.742;15.242;2022-10-31T11:05:24;12.65;93.77
69335;SHT31;56477;52.742;15.242;2022-10-31T11:07:51;12.64;94.06
69335;SHT31;56477;52.742;15.242;2022-10-31T11:10:18;12.74;94.37
69335;SHT31;56477;52.742;15.242;2022-10-31T11:15:27;12.77;93.95
69335;SHT31;56477;52.742;15.242;2022-10-31T11:17:55;12.74;94.49
69335;SHT31;56477;52.742;15.242;2022-10-31T11:20:33;12.87;94.69
69335;SHT31;56477;52.742;15.242;2022-10-31T11:23:04;12.99;94.52
69335;SHT31;56477;52.742;15.242;2022-10-31T11:25:31;13.12;94.38
69335;SHT31;56477;52.742;15.242;2022-10-31T11:28:05;13.49;94.06
69335;SHT31;56477;52.742;15.242;2022-10-31T11:30:42;13.85;93.01
69335;SHT31;56477;52.742;15.242;2022-10-31T11:35:57;14.98;89.48
69335;SHT31;56477;52.742;15.242;2022-10-31T11:38:33;15.23;88.56
69335;SHT31;56477;52.742;15.242;2022-10-31T11:41:11;15.56;87.87
69335;SHT31;56477;52.742;15.242;2022-10-31T11:43:51;16.06;85.53
69335;SHT31;56477;52.742;15.242;2022-10-31T11:46:35;16.02;84.33
69335;SHT31;56477;52.742;15.242;2022-10-31T11:49:04;16.47;83.96
69335;SHT31;56477;52.742;15.242;2022-10-31T11:51:34;16.48;83.68
69335;SHT31;56477;52.742;15.242;2022-10-31T11:54:02;16.62;83.93
69335;SHT31;56477;52.742;15.242;2022-10-31T11:56:42;16.93;83.20
69335;SHT31;56477;52.742;15.242;2022-10-31T11:59:28;17.27;81.86
69335;SHT31;56477;52.742;15.242;2022-10-31T12:01:57;17.53;80.18
69335;SHT31;56477;52.742;15.242;2022-10-31T12:04:40;17.46;79.95
69335;SHT31;56477;52.742;15.242;2022-10-31T12:07:07;17.29;80.61
69335;SHT31;56477;52.742;15.242;2022-10-31T12:09:35;17.48;79.53
69335;SHT31;56477;52.742;15.242;2022-10-31T12:12:13;17.77;78.88
69335;SHT31;56477;52.742;15.242;2022-10-31T12:15:36;17.78;80.04
69335;SHT31;56477;52.742;15.242;2022-10-31T12:23:47;18.76;76.09
69335;SHT31;56477;52.742;15.242;2022-10-31T12:26:52;18.63;77.08
69335;SHT31;56477;52.742;15.242;2022-10-31T12:29:30;18.64;77.22
69335;SHT31;56477;52.742;15.242;2022-10-31T12:35:20;19.16;76.60
69335;SHT31;56477;52.742;15.242;2022-10-31T12:49:07;19.10;76.64
69335;SHT31;56477;52.742;15.242;2022-10-31T12:54:43;18.68;78.06
69335;SHT31;56477;52.742;15.242;2022-10-31T13:00:15;18.40;79.39
69335;SHT31;56477;52.742;15.242;2022-10-31T13:05:37;18.57;79.67
69335;SHT31;56477;52.742;15.242;2022-10-31T13:10:46;18.39;80.24
69335;SHT31;56477;52.742;15.242;2022-10-31T13:13:24;18.29;80.83
69335;SHT31;56477;52.742;15.242;2022-10-31T13:15:56;18.42;80.73
69335;SHT31;56477;52.742;15.242;2022-10-31T13:21:17;18.35;81.16
69335;SHT31;56477;52.742;15.242;2022-10-31T13:23:45;18.09;82.58
69335;SHT31;56477;52.742;15.242;2022-10-31T13:26:23;18.26;81.54
69335;SHT31;56477;52.742;15.242;2022-10-31T13:29:20;18.40;81.48
69335;SHT31;56477;52.742;15.242;2022-10-31T13:31:48;18.49;80.80
69335;SHT31;56477;52.742;15.242;2022-10-31T13:34:52;18.57;81.01
69335;SHT31;56477;52.742;15.242;2022-10-31T13:37:49;18.56;80.79
69335;SHT31;56477;52.742;15.242;2022-10-31T13:40:38;18.53;81.17
69335;SHT31;56477;52.742;15.242;2022-10-31T13:43:31;18.63;81.29
69335;SHT31;56477;52.742;15.242;2022-10-31T13:45:59;18.57;81.05
69335;SHT31;56477;52.742;15.242;2022-10-31T13:51:00;18.37;82.17
69335;SHT31;56477;52.742;15.242;2022-10-31T14:01:49;18.26;82.84
69335;SHT31;56477;52.742;15.242;2022-10-31T14:04:24;18.37;82.15
69335;SHT31;56477;52.742;15.242;2022-10-31T14:07:08;18.28;82.48
69335;SHT31;56477;52.742;15.242;2022-10-31T14:09:38;18.28;83.17
69335;SHT31;56477;52.742;15.242;2022-10-31T14:12:38;18.18;82.83
69335;SHT31;56477;52.742;15.242;2022-10-31T14:17:59;18.10;83.21
69335;SHT31;56477;52.742;15.242;2022-10-31T14:20:43;18.04;83.65
69335;SHT31;56477;52.742;15.242;2022-10-31T14:23:35;17.94;83.98
69335;SHT31;56477;52.742;15.242;2022-10-31T14:28:48;17.78;84.29
69335;SHT31;56477;52.742;15.242;2022-10-31T14:34:22;17.39;86.24
69335;SHT31;56477;52.742;15.242;2022-10-31T14:42:31;17.06;87.66
69335;SHT31;56477;52.742;15.242;2022-10-31T14:50:57;16.85;88.46
69335;SHT31;56477;52.742;15.242;2022-10-31T14:53:30;16.75;88.64
69335;SHT31;56477;52.742;15.242;2022-10-31T14:55:57;16.68;88.91
69335;SHT31;56477;52.742;15.242;2022-10-31T14:58:35;16.60;89.24
69335;SHT31;56477;52.742;15.242;2022-10-31T15:01:04;16.47;89.72
69335;SHT31;56477;52.742;15.242;2022-10-31T15:03:38;16.44;89.79
69335;SHT31;56477;52.742;15.242;2022-10-31T15:06:12;16.34;89.97
69335;SHT31;56477;52.742;15.242;2022-10-31T15:11:11;16.21;90.40
69335;SHT31;56477;52.742;15.242;2022-10-31T15:13:44;16.10;90.68
69335;SHT31;56477;52.742;15.242;2022-10-31T15:16:13;16.09;90.82
69335;SHT31;56477;52.742;15.242;2022-10-31T15:18:47;16.03;91.06
69335;SHT31;56477;52.742;15.242;2022-10-31T15:21:16;15.97;91.27
69335;SHT31;56477;52.742;15.242;2022-10-31T15:23:43;15.93;91.34
69335;SHT31;56477;52.742;15.242;2022-10-31T15:26:18;15.87;91.48
69335;SHT31;56477;52.742;15.242;2022-10-31T15:28:46;15.82;91.67
69335;SHT31;56477;52.742;15.242;2022-10-31T15:31:15;15.78;91.89
69335;SHT31;56477;52.742;15.242;2022-10-31T15:33:46;15.75;91.92
69335;SHT31;56477;52.742;15.242;2022-10-31T15:36:21;15.76;91.95
69335;SHT31;56477;52.742;15.242;2022-10-31T15:38:48;15.70;92.07
69335;SHT31;56477;52.742;15.242;2022-10-31T15:41:29;15.65;92.21
69335;SHT31;56477;52.742;15.242;2022-10-31T15:44:01;15.67;92.28
69335;SHT31;56477;52.742;15.242;2022-10-31T15:46:29;15.62;92.35
69335;SHT31;56477;52.742;15.242;2022-10-31T15:48:55;15.55;92.56
69335;SHT31;56477;52.742;15.242;2022-10-31T15:51:27;15.45;92.74
69335;SHT31;56477;52.742;15.242;2022-10-31T15:53:54;15.42;92.99
69335;SHT31;56477;52.742;15.242;2022-10-31T15:56:28;15.42;93.08
69335;SHT31;56477;52.742;15.242;2022-10-31T15:58:56;15.42;93.05
69335;SHT31;56477;52.742;15.242;2022-10-31T16:01:25;15.41;93.06
69335;SHT31;56477;52.742;15.242;2022-10-31T16:04:00;15.34;93.02
69335;SHT31;56477;52.742;15.242;2022-10-31T16:06:27;15.21;93.06
69335;SHT31;56477;52.742;15.242;2022-10-31T16:08:53;15.14;93.36
69335;SHT31;56477;52.742;15.242;2022-10-31T16:16:20;15.00;94.03
69335;SHT31;56477;52.742;15.242;2022-10-31T16:18:48;14.87;94.04
69335;SHT31;56477;52.742;15.242;2022-10-31T16:21:22;14.84;94.05
69335;SHT31;56477;52.742;15.242;2022-10-31T16:23:53;14.91;94.37
69335;SHT31;56477;52.742;15.242;2022-10-31T16:26:21;14.93;94.43
69335;SHT31;56477;52.742;15.242;2022-10-31T16:28:56;14.98;94.42
69335;SHT31;56477;52.742;15.242;2022-10-31T16:31:28;14.94;93.91
69335;SHT31;56477;52.742;15.242;2022-10-31T16:34:10;14.88;94.04
69335;SHT31;56477;52.742;15.242;2022-10-31T16:36:38;14.81;94.04
69335;SHT31;56477;52.742;15.242;2022-10-31T16:39:06;14.75;94.02
69335;SHT31;56477;52.742;15.242;2022-10-31T16:41:37;14.57;94.79
69335;SHT31;56477;52.742;15.242;2022-10-31T16:44:04;14.46;94.90
69335;SHT31;56477;52.742;15.242;2022-10-31T16:46:31;14.39;95.00
69335;SHT31;56477;52.742;15.242;2022-10-31T16:48:57;14.32;95.11
69335;SHT31;56477;52.742;15.242;2022-10-31T16:51:23;14.22;95.11
69335;SHT31;56477;52.742;15.242;2022-10-31T16:53:52;14.15;95.28
69335;SHT31;56477;52.742;15.242;2022-10-31T16:56:36;14.05;95.32
69335;SHT31;56477;52.742;15.242;2022-10-31T16:59:05;14.02;96.26
69335;SHT31;56477;52.742;15.242;2022-10-31T17:01:32;14.00;96.19
69335;SHT31;56477;52.742;15.242;2022-10-31T17:03:58;13.91;96.02
69335;SHT31;56477;52.742;15.242;2022-10-31T17:06:24;13.84;95.93
69335;SHT31;56477;52.742;15.242;2022-10-31T17:08:53;13.75;96.01
69335;SHT31;56477;52.742;15.242;2022-10-31T17:11:23;13.67;96.16
69335;SHT31;56477;52.742;15.242;2022-10-31T17:13:50;13.61;96.23
69335;SHT31;56477;52.742;15.242;2022-10-31T17:16:17;13.59;96.41
69335;SHT31;56477;52.742;15.242;2022-10-31T17:18:44;13.57;96.91
69335;SHT31;56477;52.742;15.242;2022-10-31T17:21:17;13.53;96.65
69335;SHT31;56477;52.742;15.242;2022-10-31T17:23:44;13.50;96.64
69335;SHT31;56477;52.742;15.242;2022-10-31T17:26:10;13.46;96.76
69335;SHT31;56477;52.742;15.242;2022-10-31T17:28:36;13.42;96.86
69335;SHT31;56477;52.742;15.242;2022-10-31T17:31:02;13.39;96.81
69335;SHT31;56477;52.742;15.242;2022-10-31T17:33:28;13.36;96.94
69335;SHT31;56477;52.742;15.242;2022-10-31T17:35:54;13.32;96.88
69335;SHT31;56477;52.742;15.242;2022-10-31T17:38:20;13.30;97.03
69335;SHT31;56477;52.742;15.242;2022-10-31T17:40:46;13.32;97.57
69335;SHT31;56477;52.742;15.242;2022-10-31T17:43:12;13.26;97.26
69335;SHT31;56477;52.742;15.242;2022-10-31T17:45:40;13.22;97.30
69335;SHT31;56477;52.742;15.242;2022-10-31T17:48:08;13.15;97.18
69335;SHT31;56477;52.742;15.242;2022-10-31T17:50:35;13.08;97.19
69335;SHT31;56477;52.742;15.242;2022-10-31T17:53:01;12.98;97.13
69335;SHT31;56477;52.742;15.242;2022-10-31T17:55:27;12.93;97.27
69335;SHT31;56477;52.742;15.242;2022-10-31T17:57:53;12.89;97.22
69335;SHT31;56477;52.742;15.242;2022-10-31T18:00:20;12.81;97.36
69335;SHT31;56477;52.742;15.242;2022-10-31T18:02:48;12.80;97.44
69335;SHT31;56477;52.742;15.242;2022-10-31T18:05:14;12.75;97.48